sensor_id;sensor_type;location;lat;lon;timestamp;P1;durP1;ratioP1;P2;durP2;ratioP2
9884;SDS011;4981;50.966;4.842;2022-09-23T00:01:04;4.10;;;2.90;;
9884;SDS011;4981;50.966;4.842;2022-09-23T00:03:34;4.10;;;2.57;;
9884;SDS011;4981;50.966;4.842;2022-09-23T00:06:04;4.27;;;2.70;;
9884;SDS011;4981;50.966;4.842;2022-09-23T00:08:35;4.23;;;2.70;;
9884;SDS011;4981;50.966;4.842;2022-09-23T00:11:03;6.07;;;3.30;;
9884;SDS011;4981;50.966;4.842;2022-09-23T00:13:32;3.63;;;3.00;;
9884;SDS011;4981;50.966;4.842;2022-09-23T00:16:00;6.43;;;3.83;;
9884;SDS011;4981;50.966;4.842;2022-09-23T00:18:29;6.67;;;3.57;;
9884;SDS011;4981;50.966;4.842;2022-09-23T00:21:00;4.40;;;3.20;;
9884;SDS011;4981;50.966;4.842;2022-09-23T00:23:28;5.07;;;2.80;;
9884;SDS011;4981;50.966;4.842;2022-09-23T00:25:55;5.50;;;3.40;;
9884;SDS011;4981;50.966;4.842;2022-09-23T00:28:23;4.43;;;3.13;;
9884;SDS011;4981;50.966;4.842;2022-09-23T00:30:50;5.13;;;3.10;;
9884;SDS011;4981;50.966;4.842;2022-09-23T00:33:18;4.57;;;3.07;;
9884;SDS011;4981;50.966;4.842;2022-09-23T00:35:45;4.70;;;2.90;;
9884;SDS011;4981;50.966;4.842;2022-09-23T00:38:15;6.97;;;3.70;;
9884;SDS011;4981;50.966;4.842;2022-09-23T00:40:42;6.40;;;3.30;;
9884;SDS011;4981;50.966;4.842;2022-09-23T00:43:11;3.47;;;3.10;;
9884;SDS011;4981;50.966;4.842;2022-09-23T00:45:39;6.23;;;3.57;;
9884;SDS011;4981;50.966;4.842;2022-09-23T00:48:11;6.77;;;4.03;;
9884;SDS011;4981;50.966;4.842;2022-09-23T00:50:42;5.47;;;3.40;;
9884;SDS011;4981;50.966;4.842;2022-09-23T00:53:16;4.67;;;3.80;;
9884;SDS011;4981;50.966;4.842;2022-09-23T00:55:47;4.50;;;3.07;;
9884;SDS011;4981;50.966;4.842;2022-09-23T00:58:17;4.77;;;3.20;;
9884;SDS011;4981;50.966;4.842;2022-09-23T01:00:52;5.37;;;3.50;;
9884;SDS011;4981;50.966;4.842;2022-09-23T01:03:22;6.00;;;3.43;;
9884;SDS011;4981;50.966;4.842;2022-09-23T01:05:50;5.13;;;3.20;;
9884;SDS011;4981;50.966;4.842;2022-09-23T01:08:19;5.23;;;3.37;;
9884;SDS011;4981;50.966;4.842;2022-09-23T01:10:49;7.13;;;3.70;;
9884;SDS011;4981;50.966;4.842;2022-09-23T01:13:25;7.27;;;4.43;;
9884;SDS011;4981;50.966;4.842;2022-09-23T01:15:59;8.03;;;4.60;;
9884;SDS011;4981;50.966;4.842;2022-09-23T01:18:32;7.67;;;4.20;;
9884;SDS011;4981;50.966;4.842;2022-09-23T01:21:19;5.57;;;3.90;;
9884;SDS011;4981;50.966;4.842;2022-09-23T01:27:00;5.97;;;3.63;;
9884;SDS011;4981;50.966;4.842;2022-09-23T01:32:35;5.73;;;3.77;;
9884;SDS011;4981;50.966;4.842;2022-09-23T01:35:17;5.40;;;3.47;;
9884;SDS011;4981;50.966;4.842;2022-09-23T01:37:49;4.87;;;3.17;;
9884;SDS011;4981;50.966;4.842;2022-09-23T01:40:25;8.20;;;3.43;;
9884;SDS011;4981;50.966;4.842;2022-09-23T01:43:01;5.63;;;3.63;;
9884;SDS011;4981;50.966;4.842;2022-09-23T01:45:33;4.40;;;3.23;;
9884;SDS011;4981;50.966;4.842;2022-09-23T01:48:08;4.87;;;3.40;;
9884;SDS011;4981;50.966;4.842;2022-09-23T01:50:41;6.53;;;3.57;;
9884;SDS011;4981;50.966;4.842;2022-09-23T01:53:23;5.77;;;3.50;;
9884;SDS011;4981;50.966;4.842;2022-09-23T01:55:58;5.63;;;3.63;;
9884;SDS011;4981;50.966;4.842;2022-09-23T01:58:32;4.07;;;3.57;;
9884;SDS011;4981;50.966;4.842;2022-09-23T02:01:05;8.30;;;3.97;;
9884;SDS011;4981;50.966;4.842;2022-09-23T02:03:36;4.23;;;3.57;;
9884;SDS011;4981;50.966;4.842;2022-09-23T02:06:09;5.57;;;4.00;;
9884;SDS011;4981;50.966;4.842;2022-09-23T02:08:40;5.47;;;3.67;;
9884;SDS011;4981;50.966;4.842;2022-09-23T02:11:12;6.10;;;3.83;;
9884;SDS011;4981;50.966;4.842;2022-09-23T02:13:44;7.70;;;4.13;;
9884;SDS011;4981;50.966;4.842;2022-09-23T02:16:19;8.23;;;4.23;;
9884;SDS011;4981;50.966;4.842;2022-09-23T02:18:54;5.30;;;3.57;;
9884;SDS011;4981;50.966;4.842;2022-09-23T02:21:26;4.27;;;3.60;;
9884;SDS011;4981;50.966;4.842;2022-09-23T02:24:02;6.77;;;3.97;;
9884;SDS011;4981;50.966;4.842;2022-09-23T02:26:34;10.20;;;4.40;;
9884;SDS011;4981;50.966;4.842;2022-09-23T02:29:14;5.87;;;4.30;;
9884;SDS011;4981;50.966;4.842;2022-09-23T02:31:48;7.40;;;4.73;;
9884;SDS011;4981;50.966;4.842;2022-09-23T02:34:26;8.53;;;4.00;;
9884;SDS011;4981;50.966;4.842;2022-09-23T02:37:07;6.27;;;4.00;;
9884;SDS011;4981;50.966;4.842;2022-09-23T02:39:50;10.03;;;3.80;;
9884;SDS011;4981;50.966;4.842;2022-09-23T02:42:26;5.50;;;4.07;;
9884;SDS011;4981;50.966;4.842;2022-09-23T02:44:58;5.50;;;3.83;;
9884;SDS011;4981;50.966;4.842;2022-09-23T02:47:27;6.03;;;4.13;;
9884;SDS011;4981;50.966;4.842;2022-09-23T02:50:00;4.87;;;4.17;;
9884;SDS011;4981;50.966;4.842;2022-09-23T02:52:27;4.00;;;3.60;;
9884;SDS011;4981;50.966;4.842;2022-09-23T02:54:56;9.00;;;4.40;;
9884;SDS011;4981;50.966;4.842;2022-09-23T02:57:24;4.13;;;3.47;;
9884;SDS011;4981;50.966;4.842;2022-09-23T02:59:52;4.73;;;3.33;;
9884;SDS011;4981;50.966;4.842;2022-09-23T03:02:26;5.17;;;3.40;;
9884;SDS011;4981;50.966;4.842;2022-09-23T03:05:18;4.73;;;4.00;;
9884;SDS011;4981;50.966;4.842;2022-09-23T03:07:53;7.03;;;3.80;;
9884;SDS011;4981;50.966;4.842;2022-09-23T03:10:34;8.10;;;3.77;;
9884;SDS011;4981;50.966;4.842;2022-09-23T03:13:15;4.93;;;3.60;;
9884;SDS011;4981;50.966;4.842;2022-09-23T03:15:48;5.33;;;3.77;;
9884;SDS011;4981;50.966;4.842;2022-09-23T03:18:23;6.60;;;3.73;;
9884;SDS011;4981;50.966;4.842;2022-09-23T03:21:01;6.20;;;4.30;;
9884;SDS011;4981;50.966;4.842;2022-09-23T03:23:32;4.50;;;3.67;;
9884;SDS011;4981;50.966;4.842;2022-09-23T03:26:04;7.20;;;3.80;;
9884;SDS011;4981;50.966;4.842;2022-09-23T03:28:35;6.03;;;4.00;;
9884;SDS011;4981;50.966;4.842;2022-09-23T03:31:04;5.77;;;4.00;;
9884;SDS011;4981;50.966;4.842;2022-09-23T03:33:32;4.87;;;3.63;;
9884;SDS011;4981;50.966;4.842;2022-09-23T03:36:04;8.10;;;4.33;;
9884;SDS011;4981;50.966;4.842;2022-09-23T03:38:53;6.67;;;4.50;;
9884;SDS011;4981;50.966;4.842;2022-09-23T03:41:26;5.77;;;4.30;;
9884;SDS011;4981;50.966;4.842;2022-09-23T03:43:58;6.60;;;4.33;;
9884;SDS011;4981;50.966;4.842;2022-09-23T03:46:27;8.37;;;4.53;;
9884;SDS011;4981;50.966;4.842;2022-09-23T03:48:55;5.40;;;4.40;;
9884;SDS011;4981;50.966;4.842;2022-09-23T03:51:32;4.53;;;4.10;;
9884;SDS011;4981;50.966;4.842;2022-09-23T03:53:59;8.83;;;4.37;;
9884;SDS011;4981;50.966;4.842;2022-09-23T03:56:26;9.50;;;5.10;;
9884;SDS011;4981;50.966;4.842;2022-09-23T03:58:53;8.13;;;5.40;;
9884;SDS011;4981;50.966;4.842;2022-09-23T04:01:22;9.30;;;5.10;;
9884;SDS011;4981;50.966;4.842;2022-09-23T04:03:50;10.03;;;4.67;;
9884;SDS011;4981;50.966;4.842;2022-09-23T04:06:18;9.43;;;5.23;;
9884;SDS011;4981;50.966;4.842;2022-09-23T04:08:47;14.73;;;5.33;;
9884;SDS011;4981;50.966;4.842;2022-09-23T04:11:14;7.90;;;5.47;;
9884;SDS011;4981;50.966;4.842;2022-09-23T04:13:42;9.40;;;5.40;;
9884;SDS011;4981;50.966;4.842;2022-09-23T04:16:09;9.13;;;5.03;;
9884;SDS011;4981;50.966;4.842;2022-09-23T04:18:36;8.07;;;4.73;;
9884;SDS011;4981;50.966;4.842;2022-09-23T04:21:04;8.47;;;5.00;;
9884;SDS011;4981;50.966;4.842;2022-09-23T04:23:32;7.07;;;4.77;;
9884;SDS011;4981;50.966;4.842;2022-09-23T04:26:01;7.50;;;4.73;;
9884;SDS011;4981;50.966;4.842;2022-09-23T04:28:30;8.33;;;5.00;;
9884;SDS011;4981;50.966;4.842;2022-09-23T04:30:57;6.93;;;4.13;;
9884;SDS011;4981;50.966;4.842;2022-09-23T04:33:24;7.97;;;5.03;;
9884;SDS011;4981;50.966;4.842;2022-09-23T04:35:52;6.63;;;4.40;;
9884;SDS011;4981;50.966;4.842;2022-09-23T04:38:20;7.87;;;4.53;;
9884;SDS011;4981;50.966;4.842;2022-09-23T04:40:48;11.00;;;5.20;;
9884;SDS011;4981;50.966;4.842;2022-09-23T04:43:16;9.77;;;5.67;;
9884;SDS011;4981;50.966;4.842;2022-09-23T04:45:55;9.63;;;5.13;;
9884;SDS011;4981;50.966;4.842;2022-09-23T04:48:23;9.70;;;5.20;;
9884;SDS011;4981;50.966;4.842;2022-09-23T04:50:50;8.90;;;5.17;;
9884;SDS011;4981;50.966;4.842;2022-09-23T04:53:18;7.80;;;4.67;;
9884;SDS011;4981;50.966;4.842;2022-09-23T04:55:46;8.50;;;5.17;;
9884;SDS011;4981;50.966;4.842;2022-09-23T04:58:17;8.03;;;5.50;;
9884;SDS011;4981;50.966;4.842;2022-09-23T05:00:47;8.07;;;5.53;;
9884;SDS011;4981;50.966;4.842;2022-09-23T05:03:14;10.83;;;6.40;;
9884;SDS011;4981;50.966;4.842;2022-09-23T05:05:41;7.53;;;5.90;;
9884;SDS011;4981;50.966;4.842;2022-09-23T05:08:10;9.20;;;6.53;;
9884;SDS011;4981;50.966;4.842;2022-09-23T05:10:37;8.17;;;5.70;;
9884;SDS011;4981;50.966;4.842;2022-09-23T05:13:06;7.30;;;5.40;;
9884;SDS011;4981;50.966;4.842;2022-09-23T05:15:35;7.60;;;5.93;;
9884;SDS011;4981;50.966;4.842;2022-09-23T05:18:03;11.67;;;7.43;;
9884;SDS011;4981;50.966;4.842;2022-09-23T05:20:30;7.63;;;5.07;;
9884;SDS011;4981;50.966;4.842;2022-09-23T05:22:57;6.97;;;5.07;;
9884;SDS011;4981;50.966;4.842;2022-09-23T05:25:25;8.90;;;5.20;;
9884;SDS011;4981;50.966;4.842;2022-09-23T05:27:52;7.53;;;5.50;;
9884;SDS011;4981;50.966;4.842;2022-09-23T05:30:19;7.07;;;5.30;;
9884;SDS011;4981;50.966;4.842;2022-09-23T05:32:48;7.77;;;5.13;;
9884;SDS011;4981;50.966;4.842;2022-09-23T05:35:16;5.73;;;4.17;;
9884;SDS011;4981;50.966;4.842;2022-09-23T05:37:43;5.67;;;3.43;;
9884;SDS011;4981;50.966;4.842;2022-09-23T05:40:10;6.07;;;3.83;;
9884;SDS011;4981;50.966;4.842;2022-09-23T05:42:38;6.47;;;3.73;;
9884;SDS011;4981;50.966;4.842;2022-09-23T05:45:06;6.60;;;3.80;;
9884;SDS011;4981;50.966;4.842;2022-09-23T05:47:33;6.43;;;3.83;;
9884;SDS011;4981;50.966;4.842;2022-09-23T05:50:02;6.17;;;3.80;;
9884;SDS011;4981;50.966;4.842;2022-09-23T05:52:30;7.17;;;3.57;;
9884;SDS011;4981;50.966;4.842;2022-09-23T05:54:58;8.53;;;4.07;;
9884;SDS011;4981;50.966;4.842;2022-09-23T05:57:26;5.30;;;2.90;;
9884;SDS011;4981;50.966;4.842;2022-09-23T05:59:54;6.93;;;4.13;;
9884;SDS011;4981;50.966;4.842;2022-09-23T06:02:21;8.87;;;5.10;;
9884;SDS011;4981;50.966;4.842;2022-09-23T06:04:49;8.17;;;5.07;;
9884;SDS011;4981;50.966;4.842;2022-09-23T06:07:17;7.27;;;4.27;;
9884;SDS011;4981;50.966;4.842;2022-09-23T06:09:45;8.53;;;4.93;;
9884;SDS011;4981;50.966;4.842;2022-09-23T06:12:12;8.13;;;4.73;;
9884;SDS011;4981;50.966;4.842;2022-09-23T06:14:40;7.00;;;4.30;;
9884;SDS011;4981;50.966;4.842;2022-09-23T06:17:07;8.83;;;4.23;;
9884;SDS011;4981;50.966;4.842;2022-09-23T06:19:34;6.33;;;3.27;;
9884;SDS011;4981;50.966;4.842;2022-09-23T06:22:02;5.97;;;2.57;;
9884;SDS011;4981;50.966;4.842;2022-09-23T06:24:30;5.47;;;3.77;;
9884;SDS011;4981;50.966;4.842;2022-09-23T06:26:58;7.00;;;3.90;;
9884;SDS011;4981;50.966;4.842;2022-09-23T06:29:26;6.10;;;4.67;;
9884;SDS011;4981;50.966;4.842;2022-09-23T06:31:55;8.40;;;5.70;;
9884;SDS011;4981;50.966;4.842;2022-09-23T06:34:26;10.90;;;5.40;;
9884;SDS011;4981;50.966;4.842;2022-09-23T06:36:53;6.90;;;4.50;;
9884;SDS011;4981;50.966;4.842;2022-09-23T06:39:21;6.33;;;3.90;;
9884;SDS011;4981;50.966;4.842;2022-09-23T06:41:50;6.10;;;4.23;;
9884;SDS011;4981;50.966;4.842;2022-09-23T06:44:18;6.87;;;3.73;;
9884;SDS011;4981;50.966;4.842;2022-09-23T06:46:45;7.33;;;3.67;;
9884;SDS011;4981;50.966;4.842;2022-09-23T06:49:12;5.87;;;3.73;;
9884;SDS011;4981;50.966;4.842;2022-09-23T06:51:40;9.30;;;3.83;;
9884;SDS011;4981;50.966;4.842;2022-09-23T06:54:07;11.57;;;3.73;;
9884;SDS011;4981;50.966;4.842;2022-09-23T06:56:35;11.20;;;4.37;;
9884;SDS011;4981;50.966;4.842;2022-09-23T06:59:04;7.70;;;3.90;;
9884;SDS011;4981;50.966;4.842;2022-09-23T07:01:31;9.77;;;4.10;;
9884;SDS011;4981;50.966;4.842;2022-09-23T07:03:59;14.63;;;3.73;;
9884;SDS011;4981;50.966;4.842;2022-09-23T07:06:26;10.33;;;3.87;;
9884;SDS011;4981;50.966;4.842;2022-09-23T07:08:53;9.83;;;3.90;;
9884;SDS011;4981;50.966;4.842;2022-09-23T07:11:21;8.23;;;4.07;;
9884;SDS011;4981;50.966;4.842;2022-09-23T07:13:48;9.87;;;4.43;;
9884;SDS011;4981;50.966;4.842;2022-09-23T07:16:17;8.13;;;3.90;;
9884;SDS011;4981;50.966;4.842;2022-09-23T07:18:45;9.57;;;3.77;;
9884;SDS011;4981;50.966;4.842;2022-09-23T07:21:13;6.07;;;3.60;;
9884;SDS011;4981;50.966;4.842;2022-09-23T07:23:44;8.63;;;3.70;;
9884;SDS011;4981;50.966;4.842;2022-09-23T07:26:12;6.17;;;3.57;;
9884;SDS011;4981;50.966;4.842;2022-09-23T07:28:40;7.17;;;3.50;;
9884;SDS011;4981;50.966;4.842;2022-09-23T07:31:09;5.63;;;3.10;;
9884;SDS011;4981;50.966;4.842;2022-09-23T07:33:41;7.87;;;3.63;;
9884;SDS011;4981;50.966;4.842;2022-09-23T07:36:09;9.10;;;4.00;;
9884;SDS011;4981;50.966;4.842;2022-09-23T07:38:38;9.97;;;4.47;;
9884;SDS011;4981;50.966;4.842;2022-09-23T07:41:06;7.37;;;3.67;;
9884;SDS011;4981;50.966;4.842;2022-09-23T07:43:35;12.23;;;4.60;;
9884;SDS011;4981;50.966;4.842;2022-09-23T07:46:05;8.17;;;3.90;;
9884;SDS011;4981;50.966;4.842;2022-09-23T07:48:34;9.23;;;3.80;;
9884;SDS011;4981;50.966;4.842;2022-09-23T07:51:06;7.27;;;3.90;;
9884;SDS011;4981;50.966;4.842;2022-09-23T07:53:34;9.57;;;4.90;;
9884;SDS011;4981;50.966;4.842;2022-09-23T07:56:02;13.23;;;4.70;;
9884;SDS011;4981;50.966;4.842;2022-09-23T07:58:31;8.13;;;4.20;;
9884;SDS011;4981;50.966;4.842;2022-09-23T08:01:03;11.93;;;4.73;;
9884;SDS011;4981;50.966;4.842;2022-09-23T08:03:31;4.97;;;2.27;;
9884;SDS011;4981;50.966;4.842;2022-09-23T08:06:03;17.60;;;4.77;;
9884;SDS011;4981;50.966;4.842;2022-09-23T08:08:34;13.33;;;4.40;;
9884;SDS011;4981;50.966;4.842;2022-09-23T08:11:04;9.27;;;4.40;;
9884;SDS011;4981;50.966;4.842;2022-09-23T08:13:34;11.43;;;4.57;;
9884;SDS011;4981;50.966;4.842;2022-09-23T08:16:01;11.20;;;4.77;;
9884;SDS011;4981;50.966;4.842;2022-09-23T08:18:28;6.17;;;3.20;;
9884;SDS011;4981;50.966;4.842;2022-09-23T08:20:55;7.97;;;3.30;;
9884;SDS011;4981;50.966;4.842;2022-09-23T08:23:24;7.57;;;3.70;;
9884;SDS011;4981;50.966;4.842;2022-09-23T08:25:55;7.27;;;3.70;;
9884;SDS011;4981;50.966;4.842;2022-09-23T08:28:24;8.10;;;3.30;;
9884;SDS011;4981;50.966;4.842;2022-09-23T08:30:51;4.30;;;3.10;;
9884;SDS011;4981;50.966;4.842;2022-09-23T08:33:19;6.10;;;3.47;;
9884;SDS011;4981;50.966;4.842;2022-09-23T08:35:47;7.57;;;3.73;;
9884;SDS011;4981;50.966;4.842;2022-09-23T08:38:14;8.90;;;3.00;;
9884;SDS011;4981;50.966;4.842;2022-09-23T08:40:44;5.87;;;2.70;;
9884;SDS011;4981;50.966;4.842;2022-09-23T08:43:16;5.40;;;2.80;;
9884;SDS011;4981;50.966;4.842;2022-09-23T08:45:49;8.17;;;3.03;;
9884;SDS011;4981;50.966;4.842;2022-09-23T08:48:19;8.03;;;2.90;;
9884;SDS011;4981;50.966;4.842;2022-09-23T08:50:53;7.90;;;2.93;;
9884;SDS011;4981;50.966;4.842;2022-09-23T08:53:27;6.27;;;2.50;;
9884;SDS011;4981;50.966;4.842;2022-09-23T08:56:02;3.83;;;2.50;;
9884;SDS011;4981;50.966;4.842;2022-09-23T08:58:41;9.80;;;2.70;;
9884;SDS011;4981;50.966;4.842;2022-09-23T09:01:21;7.97;;;2.90;;
9884;SDS011;4981;50.966;4.842;2022-09-23T09:03:53;9.67;;;2.50;;
9884;SDS011;4981;50.966;4.842;2022-09-23T09:06:25;7.57;;;3.03;;
9884;SDS011;4981;50.966;4.842;2022-09-23T09:08:57;9.27;;;3.27;;
9884;SDS011;4981;50.966;4.842;2022-09-23T09:11:30;7.27;;;2.80;;
9884;SDS011;4981;50.966;4.842;2022-09-23T09:14:03;8.03;;;3.00;;
9884;SDS011;4981;50.966;4.842;2022-09-23T09:16:46;9.57;;;2.63;;
9884;SDS011;4981;50.966;4.842;2022-09-23T09:19:25;4.53;;;2.60;;
9884;SDS011;4981;50.966;4.842;2022-09-23T09:22:13;4.70;;;3.10;;
9884;SDS011;4981;50.966;4.842;2022-09-23T09:24:45;8.43;;;3.10;;
9884;SDS011;4981;50.966;4.842;2022-09-23T09:27:16;6.73;;;3.00;;
9884;SDS011;4981;50.966;4.842;2022-09-23T09:29:44;9.93;;;3.10;;
9884;SDS011;4981;50.966;4.842;2022-09-23T09:32:17;6.20;;;2.97;;
9884;SDS011;4981;50.966;4.842;2022-09-23T09:34:52;6.30;;;3.00;;
9884;SDS011;4981;50.966;4.842;2022-09-23T09:37:27;6.53;;;3.10;;
9884;SDS011;4981;50.966;4.842;2022-09-23T09:40:00;7.40;;;2.53;;
9884;SDS011;4981;50.966;4.842;2022-09-23T09:42:32;7.07;;;3.00;;
9884;SDS011;4981;50.966;4.842;2022-09-23T09:45:08;8.17;;;2.87;;
9884;SDS011;4981;50.966;4.842;2022-09-23T09:47:44;5.27;;;3.03;;
9884;SDS011;4981;50.966;4.842;2022-09-23T09:50:42;6.93;;;2.53;;
9884;SDS011;4981;50.966;4.842;2022-09-23T09:53:21;7.13;;;2.70;;
9884;SDS011;4981;50.966;4.842;2022-09-23T09:56:02;8.07;;;3.00;;
9884;SDS011;4981;50.966;4.842;2022-09-23T09:58:33;5.23;;;2.70;;
9884;SDS011;4981;50.966;4.842;2022-09-23T10:01:08;6.43;;;3.00;;
9884;SDS011;4981;50.966;4.842;2022-09-23T10:03:43;7.07;;;3.37;;
9884;SDS011;4981;50.966;4.842;2022-09-23T10:06:14;7.57;;;3.53;;
9884;SDS011;4981;50.966;4.842;2022-09-23T10:08:46;6.90;;;3.17;;
9884;SDS011;4981;50.966;4.842;2022-09-23T10:11:28;7.90;;;2.97;;
9884;SDS011;4981;50.966;4.842;2022-09-23T10:14:01;8.77;;;3.03;;
9884;SDS011;4981;50.966;4.842;2022-09-23T10:16:31;6.57;;;2.50;;
9884;SDS011;4981;50.966;4.842;2022-09-23T10:18:59;8.23;;;2.57;;
9884;SDS011;4981;50.966;4.842;2022-09-23T10:21:34;6.20;;;2.97;;
9884;SDS011;4981;50.966;4.842;2022-09-23T10:24:04;5.53;;;2.53;;
9884;SDS011;4981;50.966;4.842;2022-09-23T10:26:35;8.77;;;2.80;;
9884;SDS011;4981;50.966;4.842;2022-09-23T10:29:18;6.83;;;2.80;;
9884;SDS011;4981;50.966;4.842;2022-09-23T10:31:48;6.80;;;2.50;;
9884;SDS011;4981;50.966;4.842;2022-09-23T10:34:39;6.37;;;2.80;;
9884;SDS011;4981;50.966;4.842;2022-09-23T10:37:13;7.90;;;3.27;;
9884;SDS011;4981;50.966;4.842;2022-09-23T10:39:43;5.73;;;2.83;;
9884;SDS011;4981;50.966;4.842;2022-09-23T10:42:29;7.87;;;2.83;;
9884;SDS011;4981;50.966;4.842;2022-09-23T10:45:25;5.80;;;2.70;;
9884;SDS011;4981;50.966;4.842;2022-09-23T10:48:13;6.63;;;2.83;;
9884;SDS011;4981;50.966;4.842;2022-09-23T10:50:51;9.70;;;3.03;;
9884;SDS011;4981;50.966;4.842;2022-09-23T10:53:23;8.07;;;3.37;;
9884;SDS011;4981;50.966;4.842;2022-09-23T10:56:14;7.27;;;3.10;;
9884;SDS011;4981;50.966;4.842;2022-09-23T10:58:54;10.60;;;3.27;;
9884;SDS011;4981;50.966;4.842;2022-09-23T11:01:47;9.00;;;2.97;;
9884;SDS011;4981;50.966;4.842;2022-09-23T11:07:26;6.80;;;3.67;;
9884;SDS011;4981;50.966;4.842;2022-09-23T11:10:08;8.97;;;3.37;;
9884;SDS011;4981;50.966;4.842;2022-09-23T11:12:51;6.77;;;3.60;;
9884;SDS011;4981;50.966;4.842;2022-09-23T11:15:28;7.10;;;3.87;;
9884;SDS011;4981;50.966;4.842;2022-09-23T11:18:17;9.10;;;3.20;;
9884;SDS011;4981;50.966;4.842;2022-09-23T11:21:19;8.03;;;3.80;;
9884;SDS011;4981;50.966;4.842;2022-09-23T11:24:01;8.07;;;4.20;;
9884;SDS011;4981;50.966;4.842;2022-09-23T11:26:51;8.70;;;3.50;;
9884;SDS011;4981;50.966;4.842;2022-09-23T11:29:35;14.57;;;4.43;;
9884;SDS011;4981;50.966;4.842;2022-09-23T11:32:20;7.80;;;4.30;;
9884;SDS011;4981;50.966;4.842;2022-09-23T11:34:59;9.90;;;4.30;;
9884;SDS011;4981;50.966;4.842;2022-09-23T11:37:37;9.87;;;3.90;;
9884;SDS011;4981;50.966;4.842;2022-09-23T11:40:12;9.57;;;4.37;;
9884;SDS011;4981;50.966;4.842;2022-09-23T11:42:46;8.90;;;4.00;;
9884;SDS011;4981;50.966;4.842;2022-09-23T11:45:20;7.67;;;4.10;;
9884;SDS011;4981;50.966;4.842;2022-09-23T11:47:53;11.57;;;4.27;;
9884;SDS011;4981;50.966;4.842;2022-09-23T11:50:24;6.77;;;3.97;;
9884;SDS011;4981;50.966;4.842;2022-09-23T11:52:56;11.20;;;3.50;;
9884;SDS011;4981;50.966;4.842;2022-09-23T11:55:30;8.00;;;4.00;;
9884;SDS011;4981;50.966;4.842;2022-09-23T11:58:04;7.50;;;3.87;;
9884;SDS011;4981;50.966;4.842;2022-09-23T12:00:36;9.80;;;3.80;;
9884;SDS011;4981;50.966;4.842;2022-09-23T12:03:11;7.83;;;3.43;;
9884;SDS011;4981;50.966;4.842;2022-09-23T12:05:43;8.67;;;3.90;;
9884;SDS011;4981;50.966;4.842;2022-09-23T12:08:14;6.63;;;3.13;;
9884;SDS011;4981;50.966;4.842;2022-09-23T12:10:52;9.10;;;3.70;;
9884;SDS011;4981;50.966;4.842;2022-09-23T12:13:31;7.37;;;3.23;;
9884;SDS011;4981;50.966;4.842;2022-09-23T12:16:08;6.13;;;3.07;;
9884;SDS011;4981;50.966;4.842;2022-09-23T12:18:54;7.13;;;3.37;;
9884;SDS011;4981;50.966;4.842;2022-09-23T12:21:32;7.00;;;3.30;;
9884;SDS011;4981;50.966;4.842;2022-09-23T12:27:07;7.73;;;3.60;;
9884;SDS011;4981;50.966;4.842;2022-09-23T12:29:47;8.00;;;4.00;;
9884;SDS011;4981;50.966;4.842;2022-09-23T12:32:17;8.13;;;3.63;;
9884;SDS011;4981;50.966;4.842;2022-09-23T12:34:45;6.50;;;3.10;;
9884;SDS011;4981;50.966;4.842;2022-09-23T12:37:21;6.37;;;3.70;;
9884;SDS011;4981;50.966;4.842;2022-09-23T12:39:51;5.13;;;3.10;;
9884;SDS011;4981;50.966;4.842;2022-09-23T12:42:19;5.60;;;3.00;;
9884;SDS011;4981;50.966;4.842;2022-09-23T12:44:50;7.90;;;3.67;;
9884;SDS011;4981;50.966;4.842;2022-09-23T12:47:37;4.93;;;3.33;;
9884;SDS011;4981;50.966;4.842;2022-09-23T12:56:26;6.07;;;3.60;;
9884;SDS011;4981;50.966;4.842;2022-09-23T13:02:29;5.80;;;2.90;;
9884;SDS011;4981;50.966;4.842;2022-09-23T13:05:12;5.93;;;3.20;;
9884;SDS011;4981;50.966;4.842;2022-09-23T13:08:03;8.63;;;3.23;;
9884;SDS011;4981;50.966;4.842;2022-09-23T13:10:36;10.43;;;3.90;;
9884;SDS011;4981;50.966;4.842;2022-09-23T13:13:08;6.00;;;3.80;;
9884;SDS011;4981;50.966;4.842;2022-09-23T13:15:46;10.83;;;3.80;;
9884;SDS011;4981;50.966;4.842;2022-09-23T13:18:23;6.67;;;3.60;;
9884;SDS011;4981;50.966;4.842;2022-09-23T13:21:14;6.07;;;4.00;;
9884;SDS011;4981;50.966;4.842;2022-09-23T13:26:45;7.00;;;3.40;;
9884;SDS011;4981;50.966;4.842;2022-09-23T13:29:15;7.90;;;3.47;;
9884;SDS011;4981;50.966;4.842;2022-09-23T13:31:47;6.83;;;4.33;;
9884;SDS011;4981;50.966;4.842;2022-09-23T13:34:14;9.07;;;4.07;;
9884;SDS011;4981;50.966;4.842;2022-09-23T13:36:46;9.73;;;4.40;;
9884;SDS011;4981;50.966;4.842;2022-09-23T13:39:14;7.83;;;3.93;;
9884;SDS011;4981;50.966;4.842;2022-09-23T13:41:42;11.37;;;4.43;;
9884;SDS011;4981;50.966;4.842;2022-09-23T13:44:13;9.60;;;4.30;;
9884;SDS011;4981;50.966;4.842;2022-09-23T13:46:46;8.03;;;3.70;;
9884;SDS011;4981;50.966;4.842;2022-09-23T13:49:18;13.00;;;4.10;;
9884;SDS011;4981;50.966;4.842;2022-09-23T13:51:49;10.27;;;4.40;;
9884;SDS011;4981;50.966;4.842;2022-09-23T13:54:27;7.83;;;3.90;;
9884;SDS011;4981;50.966;4.842;2022-09-23T13:56:56;9.33;;;3.73;;
9884;SDS011;4981;50.966;4.842;2022-09-23T13:59:24;7.23;;;3.63;;
9884;SDS011;4981;50.966;4.842;2022-09-23T14:02:04;7.73;;;4.10;;
9884;SDS011;4981;50.966;4.842;2022-09-23T14:04:36;7.03;;;4.03;;
9884;SDS011;4981;50.966;4.842;2022-09-23T14:07:05;9.10;;;4.40;;
9884;SDS011;4981;50.966;4.842;2022-09-23T14:09:33;10.07;;;4.20;;
9884;SDS011;4981;50.966;4.842;2022-09-23T14:12:04;11.83;;;4.67;;
9884;SDS011;4981;50.966;4.842;2022-09-23T14:14:34;8.93;;;3.70;;
9884;SDS011;4981;50.966;4.842;2022-09-23T14:17:06;7.67;;;4.27;;
9884;SDS011;4981;50.966;4.842;2022-09-23T14:19:35;9.73;;;4.30;;
9884;SDS011;4981;50.966;4.842;2022-09-23T14:22:03;13.87;;;5.67;;
9884;SDS011;4981;50.966;4.842;2022-09-23T14:24:30;8.83;;;4.77;;
9884;SDS011;4981;50.966;4.842;2022-09-23T14:27:00;10.90;;;4.93;;
9884;SDS011;4981;50.966;4.842;2022-09-23T14:29:40;9.43;;;5.00;;
9884;SDS011;4981;50.966;4.842;2022-09-23T14:32:11;9.47;;;4.27;;
9884;SDS011;4981;50.966;4.842;2022-09-23T14:34:41;10.40;;;4.47;;
9884;SDS011;4981;50.966;4.842;2022-09-23T14:40:14;7.90;;;4.07;;
9884;SDS011;4981;50.966;4.842;2022-09-23T14:42:44;7.53;;;4.27;;
9884;SDS011;4981;50.966;4.842;2022-09-23T14:45:16;6.50;;;4.03;;
9884;SDS011;4981;50.966;4.842;2022-09-23T14:47:49;9.70;;;4.50;;
9884;SDS011;4981;50.966;4.842;2022-09-23T14:50:20;8.23;;;4.20;;
9884;SDS011;4981;50.966;4.842;2022-09-23T14:56:07;7.17;;;4.27;;
9884;SDS011;4981;50.966;4.842;2022-09-23T14:58:40;8.30;;;4.17;;
9884;SDS011;4981;50.966;4.842;2022-09-23T15:01:22;7.03;;;4.30;;
9884;SDS011;4981;50.966;4.842;2022-09-23T15:03:53;7.53;;;4.40;;
9884;SDS011;4981;50.966;4.842;2022-09-23T15:06:21;8.10;;;4.67;;
9884;SDS011;4981;50.966;4.842;2022-09-23T15:08:50;10.83;;;4.93;;
9884;SDS011;4981;50.966;4.842;2022-09-23T15:11:20;8.27;;;4.45;;
9884;SDS011;4981;50.966;4.842;2022-09-23T15:13:48;8.80;;;4.43;;
9884;SDS011;4981;50.966;4.842;2022-09-23T15:16:22;10.23;;;4.33;;
9884;SDS011;4981;50.966;4.842;2022-09-23T15:18:54;11.27;;;4.53;;
9884;SDS011;4981;50.966;4.842;2022-09-23T15:21:23;9.23;;;4.27;;
9884;SDS011;4981;50.966;4.842;2022-09-23T15:23:57;9.33;;;4.27;;
9884;SDS011;4981;50.966;4.842;2022-09-23T15:26:38;9.97;;;4.03;;
9884;SDS011;4981;50.966;4.842;2022-09-23T15:29:11;11.80;;;4.80;;
9884;SDS011;4981;50.966;4.842;2022-09-23T15:31:38;10.97;;;4.60;;
9884;SDS011;4981;50.966;4.842;2022-09-23T15:34:08;8.27;;;4.53;;
9884;SDS011;4981;50.966;4.842;2022-09-23T15:36:36;9.07;;;4.00;;
9884;SDS011;4981;50.966;4.842;2022-09-23T15:39:04;7.33;;;4.27;;
9884;SDS011;4981;50.966;4.842;2022-09-23T15:41:32;9.73;;;4.60;;
9884;SDS011;4981;50.966;4.842;2022-09-23T15:44:01;6.27;;;3.93;;
9884;SDS011;4981;50.966;4.842;2022-09-23T15:46:37;11.37;;;4.13;;
9884;SDS011;4981;50.966;4.842;2022-09-23T15:49:14;12.00;;;4.03;;
9884;SDS011;4981;50.966;4.842;2022-09-23T15:51:47;6.03;;;4.00;;
9884;SDS011;4981;50.966;4.842;2022-09-23T15:54:15;9.53;;;4.30;;
9884;SDS011;4981;50.966;4.842;2022-09-23T15:56:43;14.67;;;4.47;;
9884;SDS011;4981;50.966;4.842;2022-09-23T15:59:11;12.03;;;4.43;;
9884;SDS011;4981;50.966;4.842;2022-09-23T16:01:39;10.47;;;4.07;;
9884;SDS011;4981;50.966;4.842;2022-09-23T16:04:09;10.20;;;4.50;;
9884;SDS011;4981;50.966;4.842;2022-09-23T16:06:38;12.23;;;4.50;;
9884;SDS011;4981;50.966;4.842;2022-09-23T16:09:07;8.50;;;4.20;;
9884;SDS011;4981;50.966;4.842;2022-09-23T16:11:37;9.67;;;4.37;;
9884;SDS011;4981;50.966;4.842;2022-09-23T16:14:07;11.87;;;5.20;;